Aérodrome :
LOGIN :

S'inscrire | Disclaimer

   EN    FR    IT 

 










Légende :    VFR   VFR Marginal   IFR   IFR Intensif   IFR Très Intensif
Visi : 
Plafond : 
>= 8 km
>= 3000ft
5 à 8 km
1000 à 3000 ft
1500m à 5 km
500 à 1000 ft
800 à 1500m
200 à 500 ft
< 800m
< 200 ft
Symboles :   Orages  Brouillard  Fortes neiges  Fortes précipitations  Vent > 20 kt
SIGMETs :   Divers  Orages  Givrage  Turbulence  Onde Orograph.  Cendres Volcan.







- Altitude de l'aérodrome : 517 ft
- Code IATA : GML


UKKM - Antonov

DERNIER METAR :
  • 210230Z AUTO 24002MPS 9999 // NCD 15/13 Q1018

METARs EXPIRÉS :
  • 210200Z AUTO 00000MPS 9999 // NCD 16/12 Q1018
  • 210130Z AUTO 24002MPS 9999 // NCD 16/12 Q1018
  • 210100Z AUTO 25002MPS 9999 // NCD 17/12 Q1018
  • 210030Z AUTO 26002MPS 9999 // NCD 16/12 Q1018
  • 210000Z AUTO 26002MPS 9999 // NCD 18/12 Q1018

TAF TAF UKKM
Valide du 21 à 00h jusqu'au 22 à 00h UTC


202303Z 2100/2124 VRB01MPS 9999 SCT040 TX30/2112Z TN16/2102Z
TEMPO 2100/2105 3000 BR SCT007
BECMG 2105/2107 18004G09MPS
Pas de NOTAMs connus pour ce terrain.



MET'MAP, la Météo Aéronautique d'un coup d'oeil ! - Copyright ORBIFLY Décembre 2007 - Disclaimer

ORBIFLY MET'MAP TEAM :

Programmation & Développement : Alexandra Zaïnal
Conception & Développement : Baudouin d'Aumeries
Co-Programmation & Développement : Marc-Olivier Méhu
Soutien technique & logistique : Manuel Goepfert

Contact : metmap@orbifly.com




SOURCES & CREDITS :

   NOAA